createdAt,value
2018-07-19T00:01:56.958Z,94172.81
2018-07-19T00:04:27.036Z,94180.44
2018-07-19T00:06:57.023Z,94172.95
2018-07-19T00:09:26.790Z,94177.16
2018-07-19T00:11:56.908Z,94167.30
2018-07-19T00:14:26.805Z,94165.50
2018-07-19T00:16:56.954Z,94183.00
2018-07-19T00:19:26.580Z,94153.05
2018-07-19T00:21:56.600Z,94145.89
2018-07-19T00:24:26.412Z,94158.36
2018-07-19T00:26:56.484Z,94152.11
2018-07-19T00:29:26.518Z,94157.76
2018-07-19T00:31:56.725Z,94128.98
2018-07-19T00:34:26.863Z,94153.11
2018-07-19T00:36:56.557Z,94154.26
2018-07-19T00:39:26.364Z,94138.39
2018-07-19T00:41:56.392Z,94149.96
2018-07-19T00:44:26.303Z,94139.28
2018-07-19T00:46:56.424Z,94126.83
2018-07-19T00:49:26.337Z,94148.39
2018-07-19T00:51:55.948Z,94116.69
2018-07-19T00:54:25.604Z,94136.05
2018-07-19T00:56:55.161Z,94128.02
2018-07-19T00:59:24.883Z,94103.70
2018-07-19T01:01:55.042Z,94118.34
2018-07-19T01:04:24.698Z,94105.16
2018-07-19T01:06:54.499Z,94160.45
2018-07-19T01:09:24.634Z,94151.48
2018-07-19T01:11:54.538Z,94138.94
2018-07-19T01:14:24.434Z,94110.22
2018-07-19T01:16:54.600Z,94112.72
2018-07-19T01:19:24.714Z,94082.19
2018-07-19T01:21:54.751Z,94104.00
2018-07-19T01:24:24.371Z,94099.48
2018-07-19T01:26:53.912Z,94117.77
2018-07-19T01:29:23.752Z,94099.94
2018-07-19T01:31:53.570Z,94097.53
2018-07-19T01:34:23.266Z,94109.13
2018-07-19T01:36:53.236Z,94081.65
2018-07-19T01:39:22.741Z,94120.86
2018-07-19T01:42:45.374Z,94101.09
2018-07-19T01:45:15.253Z,94107.56
2018-07-19T01:47:45.592Z,94109.87
2018-07-19T01:50:15.408Z,94089.73
2018-07-19T01:52:45.515Z,94088.70
2018-07-19T01:55:15.233Z,94089.01
2018-07-19T01:57:45.002Z,94097.38
2018-07-19T02:00:14.558Z,94097.58
2018-07-19T02:02:44.111Z,94099.93
2018-07-19T02:05:14.320Z,94079.55
2018-07-19T02:07:44.409Z,94088.02
2018-07-19T02:10:14.334Z,94080.08
2018-07-19T02:12:44.338Z,94097.83
2018-07-19T02:15:14.627Z,94069.95
2018-07-19T02:17:44.376Z,94073.91
2018-07-19T02:20:14.263Z,94076.95
2018-07-19T02:22:44.494Z,94076.99
2018-07-19T02:25:14.167Z,94074.49
2018-07-19T02:27:43.975Z,94085.67
2018-07-19T02:30:13.669Z,94096.64
2018-07-19T02:32:43.359Z,94083.03
2018-07-19T02:35:12.902Z,94093.46
2018-07-19T02:37:43.185Z,94088.80
2018-07-19T02:40:13.113Z,94089.35
2018-07-19T02:42:43.051Z,94109.09
2018-07-19T02:45:12.866Z,94071.37
2018-07-19T02:47:43.174Z,94105.77
2018-07-19T02:50:13.050Z,94101.55
2018-07-19T02:52:42.922Z,94095.72
2018-07-19T02:55:12.782Z,94103.75
2018-07-19T02:57:42.522Z,94124.81
2018-07-19T03:00:12.447Z,94107.86
2018-07-19T03:02:42.207Z,94113.15
2018-07-19T03:05:11.785Z,94119.44
2018-07-19T03:07:41.959Z,94119.38
2018-07-19T03:10:11.557Z,94118.58
2018-07-19T03:12:41.382Z,94122.72
2018-07-19T03:15:11.337Z,94125.27
2018-07-19T03:17:41.404Z,94141.61
2018-07-19T03:20:11.519Z,94130.76
2018-07-19T03:22:41.262Z,94130.65
2018-07-19T03:25:11.299Z,94135.10
2018-07-19T03:27:40.875Z,94137.09
2018-07-19T03:30:11.846Z,94129.85
2018-07-19T03:32:41.422Z,94136.21
2018-07-19T03:35:11.209Z,94130.03
2018-07-19T03:37:41.234Z,94141.45
2018-07-19T03:40:10.978Z,94136.66
2018-07-19T03:42:40.459Z,94146.50
2018-07-19T03:45:10.311Z,94142.29
2018-07-19T03:47:40.011Z,94133.24
2018-07-19T03:50:10.256Z,94147.36
2018-07-19T03:52:39.952Z,94145.59
2018-07-19T03:55:10.372Z,94149.09
2018-07-19T03:57:40.156Z,94146.79
2018-07-19T04:00:10.315Z,94155.62
2018-07-19T04:02:40.051Z,94155.94
2018-07-19T04:05:09.835Z,94149.09
2018-07-19T04:07:39.824Z,94139.69
2018-07-19T04:10:09.445Z,94143.31
2018-07-19T04:12:38.986Z,94140.38
2018-07-19T04:15:09.145Z,94139.48
2018-07-19T04:17:46.091Z,94129.16
2018-07-19T04:20:16.118Z,94132.34
2018-07-19T04:22:45.831Z,94135.64
2018-07-19T04:25:15.451Z,94134.20
2018-07-19T04:27:45.151Z,94137.51
2018-07-19T04:30:14.924Z,94129.05
2018-07-19T04:32:44.923Z,94133.87
2018-07-19T04:35:14.791Z,94126.02
2018-07-19T04:37:45.097Z,94143.81
2018-07-19T04:40:15.104Z,94133.33
2018-07-19T04:42:45.112Z,94134.81
2018-07-19T04:45:14.672Z,94140.15
2018-07-19T04:47:44.654Z,94135.97
2018-07-19T04:50:14.656Z,94138.98
2018-07-19T04:52:44.691Z,94132.02
2018-07-19T04:55:14.767Z,94131.39
2018-07-19T04:57:44.842Z,94129.52
2018-07-19T05:00:14.735Z,94137.95
2018-07-19T05:02:44.326Z,94152.20
2018-07-19T05:05:14.473Z,94153.84
2018-07-19T05:07:44.490Z,94146.41
2018-07-19T05:10:14.233Z,94149.45
2018-07-19T05:12:44.643Z,94155.65
2018-07-19T05:15:14.227Z,94150.87
2018-07-19T05:17:43.760Z,94135.30
2018-07-19T05:20:13.926Z,94151.67
2018-07-19T05:22:43.962Z,94168.22
2018-07-19T05:25:13.710Z,94163.03
2018-07-19T05:27:43.816Z,94153.34
2018-07-19T05:30:13.708Z,94155.92
2018-07-19T05:32:43.426Z,94167.20
2018-07-19T05:35:13.667Z,94138.22
2018-07-19T05:37:43.742Z,94169.52
2018-07-19T05:40:14.017Z,94141.98
2018-07-19T05:42:43.706Z,94126.03
2018-07-19T05:45:13.827Z,94150.80
2018-07-19T05:47:43.357Z,94147.22
2018-07-19T05:50:13.014Z,94149.50
2018-07-19T05:52:42.961Z,94171.11
2018-07-19T05:55:12.671Z,94160.42
2018-07-19T05:57:42.551Z,94156.48
2018-07-19T06:00:12.400Z,94156.77
2018-07-19T06:02:42.071Z,94164.28
2018-07-19T06:05:11.606Z,94161.39
2018-07-19T06:07:42.076Z,94173.23
2018-07-19T06:10:11.913Z,94164.03
2018-07-19T06:12:41.573Z,94157.64
2018-07-19T06:15:12.013Z,94161.22
2018-07-19T06:17:41.659Z,94158.83
2018-07-19T06:20:11.614Z,94171.30
2018-07-19T06:22:41.367Z,94160.61
2018-07-19T06:25:11.107Z,94170.86
2018-07-19T06:27:41.290Z,94170.86
2018-07-19T06:30:11.085Z,94170.08
2018-07-19T06:32:40.793Z,94177.35
2018-07-19T06:35:10.936Z,94185.00
2018-07-19T06:37:41.036Z,94184.78
2018-07-19T06:40:10.906Z,94183.64
2018-07-19T06:42:40.914Z,94183.53
2018-07-19T06:45:10.854Z,94183.48
2018-07-19T06:47:41.434Z,94194.60
2018-07-19T06:50:10.999Z,94201.88
2018-07-19T06:52:40.917Z,94203.67
2018-07-19T06:55:10.463Z,94194.53
2018-07-19T06:57:40.155Z,94197.03
2018-07-19T07:00:10.406Z,94196.96
2018-07-19T07:02:40.031Z,94200.73
2018-07-19T07:05:10.104Z,94193.46
2018-07-19T07:07:39.879Z,94206.59
2018-07-19T07:10:10.154Z,94191.71
2018-07-19T07:12:39.878Z,94201.05
2018-07-19T07:15:09.886Z,94190.61
2018-07-19T07:17:39.480Z,94194.27
2018-07-19T07:20:09.330Z,94198.80
2018-07-19T07:22:38.934Z,94206.77
2018-07-19T07:25:08.453Z,94211.55
2018-07-19T07:27:38.744Z,94212.17
2018-07-19T07:30:08.738Z,94214.03
2018-07-19T07:32:39.190Z,94219.49
2018-07-19T07:35:09.710Z,94209.69
2018-07-19T07:37:40.124Z,94198.84
2018-07-19T07:40:09.947Z,94213.56
2018-07-19T07:42:39.622Z,94200.34
2018-07-19T07:45:09.634Z,94203.06
2018-07-19T07:47:39.964Z,94209.13
2018-07-19T07:50:09.831Z,94206.20
2018-07-19T07:52:39.521Z,94218.14
2018-07-19T07:55:09.559Z,94222.35
2018-07-19T07:57:39.137Z,94215.03
2018-07-19T08:00:08.735Z,94214.30
2018-07-19T08:02:38.874Z,94206.98
2018-07-19T08:05:08.845Z,94203.61
2018-07-19T08:07:38.816Z,94213.92
2018-07-19T08:10:08.623Z,94225.66
2018-07-19T08:12:38.650Z,94219.00
2018-07-19T08:15:08.890Z,94214.16
2018-07-19T08:17:38.674Z,94222.96
2018-07-19T08:20:08.817Z,94235.45
2018-07-19T08:22:38.655Z,94224.73
2018-07-19T08:25:08.963Z,94230.16
2018-07-19T08:27:38.871Z,94227.64
2018-07-19T08:30:08.593Z,94241.59
2018-07-19T08:32:38.614Z,94231.48
2018-07-19T08:35:08.270Z,94244.83
2018-07-19T08:37:38.350Z,94249.39
2018-07-19T08:40:08.035Z,94242.02
2018-07-19T08:42:37.870Z,94241.35
2018-07-19T08:45:07.806Z,94249.62
2018-07-19T08:47:37.578Z,94245.45
2018-07-19T08:50:07.745Z,94250.48
2018-07-19T08:52:37.632Z,94232.91
2018-07-19T08:55:07.472Z,94274.65
2018-07-19T08:57:37.645Z,94262.17
2018-07-19T09:00:07.844Z,94265.08
2018-07-19T09:02:37.486Z,94267.92
2018-07-19T09:05:06.995Z,94258.91
2018-07-19T09:07:36.752Z,94257.13
2018-07-19T09:10:06.691Z,94256.97
2018-07-19T09:12:36.954Z,94264.30
2018-07-19T09:15:07.132Z,94260.72
2018-07-19T09:17:36.878Z,94260.53
2018-07-19T09:20:06.474Z,94301.82
2018-07-19T09:22:36.239Z,94283.69
2018-07-19T09:25:06.630Z,94283.39
2018-07-19T09:27:36.611Z,94288.52
2018-07-19T09:30:07.586Z,94280.19
2018-07-19T09:32:37.366Z,94295.00
2018-07-19T09:35:06.922Z,94278.86
2018-07-19T09:37:36.612Z,94278.76
2018-07-19T09:40:06.390Z,94294.27
2018-07-19T09:42:36.990Z,94290.80
2018-07-19T09:45:06.678Z,94293.08
2018-07-19T09:47:36.897Z,94295.83
2018-07-19T09:50:06.611Z,94275.14
2018-07-19T09:52:36.198Z,94286.67
2018-07-19T09:55:06.130Z,94289.99
2018-07-19T09:57:35.839Z,94294.27
2018-07-19T10:00:06.532Z,94292.20
2018-07-19T10:02:36.774Z,94291.53
2018-07-19T10:05:07.017Z,94289.23
2018-07-19T10:07:36.534Z,94298.66
2018-07-19T10:10:06.167Z,94304.75
2018-07-19T10:12:36.142Z,94297.30
2018-07-19T10:15:06.380Z,94312.79
2018-07-19T10:17:36.308Z,94301.30
2018-07-19T10:20:06.327Z,94303.68
2018-07-19T10:22:36.142Z,94315.90
2018-07-19T10:25:05.826Z,94304.61
2018-07-19T10:27:35.578Z,94314.20
2018-07-19T10:30:07.698Z,94321.84
2018-07-19T10:32:37.821Z,94319.36
2018-07-19T10:35:08.066Z,94314.93
2018-07-19T10:37:37.896Z,94325.47
2018-07-19T10:40:07.755Z,94322.25
2018-07-19T10:42:37.366Z,94322.36
2018-07-19T10:45:06.980Z,94327.36
2018-07-19T10:47:36.698Z,94329.47
2018-07-19T10:50:06.517Z,94326.71
2018-07-19T10:52:36.682Z,94332.19
2018-07-19T10:55:07.024Z,94325.90
2018-07-19T10:57:37.402Z,94325.13
2018-07-19T11:00:07.242Z,94321.89
2018-07-19T11:02:37.150Z,94322.77
2018-07-19T11:05:07.109Z,94323.00
2018-07-19T11:07:37.080Z,94317.30
2018-07-19T11:10:06.875Z,94341.27
2018-07-19T11:12:36.987Z,94322.52
2018-07-19T11:15:06.985Z,94314.23
2018-07-19T11:17:36.512Z,94323.81
2018-07-19T11:20:06.442Z,94325.97
2018-07-19T11:22:36.084Z,94325.17
2018-07-19T11:25:06.205Z,94325.47
2018-07-19T11:27:36.074Z,94317.33
2018-07-19T11:30:06.532Z,94314.34
2018-07-19T11:32:36.437Z,94327.67
2018-07-19T11:35:06.335Z,94322.25
2018-07-19T11:37:36.335Z,94326.52
2018-07-19T11:40:06.576Z,94338.49
2018-07-19T11:42:36.284Z,94334.92
2018-07-19T11:45:06.218Z,94352.05
2018-07-19T11:47:36.022Z,94345.43
2018-07-19T11:50:06.429Z,94333.22
2018-07-19T11:52:36.360Z,94335.38
2018-07-19T11:55:06.190Z,94334.17
2018-07-19T11:57:36.185Z,94325.95
2018-07-19T12:00:06.744Z,94333.77
2018-07-19T12:02:36.725Z,94347.11
2018-07-19T12:05:06.856Z,94343.63
2018-07-19T12:07:36.763Z,94327.39
2018-07-19T12:10:06.926Z,94346.20
2018-07-19T12:12:36.603Z,94341.55
2018-07-19T12:15:06.598Z,94336.81
2018-07-19T12:17:36.487Z,94339.59
2018-07-19T12:20:06.748Z,94341.12
2018-07-19T12:22:36.835Z,94317.19
2018-07-19T12:25:07.206Z,94335.48
2018-07-19T12:27:36.880Z,94335.67
2018-07-19T12:30:07.275Z,94334.12
2018-07-19T12:32:37.487Z,94335.74
2018-07-19T12:35:07.443Z,94333.53
2018-07-19T12:37:37.931Z,94321.11
2018-07-19T12:40:07.662Z,94347.91
2018-07-19T12:42:37.575Z,94343.25
2018-07-19T12:45:07.479Z,94339.05
2018-07-19T12:47:37.354Z,94278.81
2018-07-19T12:50:07.015Z,94340.20
2018-07-19T12:52:36.843Z,94336.87
2018-07-19T12:55:06.386Z,94332.14
2018-07-19T12:57:36.454Z,94327.09
2018-07-19T13:00:06.502Z,94341.38
2018-07-19T13:02:36.175Z,94336.58
2018-07-19T13:05:05.792Z,94335.11
2018-07-19T13:07:35.773Z,94349.17
2018-07-19T13:10:05.675Z,94351.70
2018-07-19T13:12:35.900Z,94360.25
2018-07-19T13:15:07.179Z,94353.97
2018-07-19T13:17:37.003Z,94342.59
2018-07-19T13:20:06.846Z,94313.31
2018-07-19T13:22:36.714Z,94352.05
2018-07-19T13:25:06.706Z,94344.36
2018-07-19T13:27:36.278Z,94346.23
2018-07-19T13:30:06.707Z,94336.95
2018-07-19T13:32:36.212Z,94355.80
2018-07-19T13:35:06.080Z,94348.59
2018-07-19T13:37:36.205Z,94354.52
2018-07-19T13:40:06.126Z,94357.41
2018-07-19T13:42:36.221Z,94354.27
2018-07-19T13:45:06.096Z,94359.99
2018-07-19T13:47:35.961Z,94360.76
2018-07-19T13:50:06.410Z,94350.66
2018-07-19T13:52:47.076Z,94345.81
2018-07-19T13:55:17.095Z,94354.03
2018-07-19T13:57:46.782Z,94355.53
2018-07-19T14:00:16.443Z,94350.63
2018-07-19T14:02:46.309Z,94361.46
2018-07-19T14:05:16.181Z,94373.83
2018-07-19T14:07:45.887Z,94369.02
2018-07-19T14:10:15.507Z,94372.28
2018-07-19T14:12:45.467Z,94386.72
2018-07-19T14:15:15.483Z,94375.78
2018-07-19T14:17:45.240Z,94370.98
2018-07-19T14:20:15.039Z,94369.66
2018-07-19T14:22:45.452Z,94366.37
2018-07-19T14:25:16.168Z,94371.27
2018-07-19T14:27:46.166Z,94366.63
2018-07-19T14:30:15.853Z,94388.22
2018-07-19T14:32:45.784Z,94385.99
2018-07-19T14:35:15.831Z,94374.45
2018-07-19T14:37:45.876Z,94390.33
2018-07-19T14:40:15.600Z,94372.22
2018-07-19T14:42:45.350Z,94381.06
2018-07-19T14:45:15.682Z,94373.21
2018-07-19T14:47:45.517Z,94373.30
2018-07-19T14:50:15.750Z,94372.17
2018-07-19T14:52:45.921Z,94374.98
2018-07-19T14:55:16.657Z,94376.56
2018-07-19T14:57:47.151Z,94367.42
2018-07-19T15:00:16.991Z,94369.70
2018-07-19T15:02:46.631Z,94381.67
2018-07-19T15:05:16.494Z,94367.80
2018-07-19T15:07:46.397Z,94374.58
2018-07-19T15:10:16.211Z,94373.42
2018-07-19T15:12:46.003Z,94375.23
2018-07-19T15:15:15.953Z,94361.72
2018-07-19T15:17:45.721Z,94375.41
2018-07-19T15:20:15.357Z,94383.96
2018-07-19T15:22:45.463Z,94363.16
2018-07-19T15:25:16.231Z,94378.67
2018-07-19T15:27:45.922Z,94379.91
2018-07-19T15:30:16.705Z,94390.53
2018-07-19T15:32:46.839Z,94402.08
2018-07-19T15:35:16.370Z,94379.69
2018-07-19T15:37:45.967Z,94386.77
2018-07-19T15:40:15.911Z,94380.09
2018-07-19T15:42:46.388Z,94386.92
2018-07-19T15:45:16.886Z,94396.29
2018-07-19T15:47:46.692Z,94398.83
2018-07-19T15:50:16.600Z,94401.56
2018-07-19T15:52:46.785Z,94402.01
2018-07-19T15:55:17.135Z,94411.89
2018-07-19T15:57:47.072Z,94398.13
2018-07-19T16:00:16.974Z,94412.88
2018-07-19T16:02:46.669Z,94421.42
2018-07-19T16:05:16.814Z,94428.69
2018-07-19T16:07:46.464Z,94432.96
2018-07-19T16:10:16.004Z,94438.38
2018-07-19T16:12:45.843Z,94424.62
2018-07-19T16:15:15.507Z,94426.59
2018-07-19T16:17:45.465Z,94435.69
2018-07-19T16:20:15.223Z,94429.22
2018-07-19T16:22:45.116Z,94433.66
2018-07-19T16:25:15.305Z,94433.20
2018-07-19T16:27:44.970Z,94438.33
2018-07-19T16:30:14.741Z,94435.94
2018-07-19T16:32:44.668Z,94437.27
2018-07-19T16:35:14.553Z,94434.52
2018-07-19T16:37:44.160Z,94423.14
2018-07-19T16:40:13.951Z,94429.66
2018-07-19T16:42:43.622Z,94430.00
2018-07-19T16:45:13.138Z,94436.27
2018-07-19T16:47:43.131Z,94444.73
2018-07-19T16:50:12.816Z,94439.55
2018-07-19T16:52:42.771Z,94438.98
2018-07-19T16:55:13.001Z,94432.05
2018-07-19T16:57:42.655Z,94428.39
2018-07-19T17:00:12.573Z,94428.09
2018-07-19T17:02:42.428Z,94430.52
2018-07-19T17:05:12.226Z,94430.00
2018-07-19T17:07:41.982Z,94432.94
2018-07-19T17:10:12.614Z,94424.23
2018-07-19T17:12:42.202Z,94429.62
2018-07-19T17:15:11.703Z,94429.34
2018-07-19T17:17:41.263Z,94424.48
2018-07-19T17:20:11.056Z,94424.83
2018-07-19T17:22:41.232Z,94432.27
2018-07-19T17:25:11.746Z,94422.55
2018-07-19T17:27:42.319Z,94422.30
2018-07-19T17:30:12.080Z,94433.66
2018-07-19T17:32:42.324Z,94433.75
2018-07-19T17:35:12.645Z,94435.30
2018-07-19T17:37:42.658Z,94432.62
2018-07-19T17:40:12.550Z,94434.41
2018-07-19T17:42:42.214Z,94426.90
2018-07-19T17:45:11.766Z,94431.69
2018-07-19T17:47:41.498Z,94443.20
2018-07-19T17:50:11.414Z,94445.50
2018-07-19T17:52:41.114Z,94436.75
2018-07-19T17:55:12.227Z,94439.29
2018-07-19T17:57:42.175Z,94448.84
2018-07-19T18:00:12.622Z,94453.63
2018-07-19T18:02:42.735Z,94438.02
2018-07-19T18:05:12.758Z,94454.66
2018-07-19T18:07:42.350Z,94451.48
2018-07-19T18:10:12.107Z,94456.27
2018-07-19T18:12:41.998Z,94456.23
2018-07-19T18:15:12.038Z,94454.95
2018-07-19T18:17:42.080Z,94454.59
2018-07-19T18:20:11.553Z,94447.03
2018-07-19T18:22:41.236Z,94450.51
2018-07-19T18:25:11.191Z,94450.73
2018-07-19T18:27:40.968Z,94450.46
2018-07-19T18:30:17.878Z,94453.33
2018-07-19T18:32:47.958Z,94444.39
2018-07-19T18:35:18.091Z,94449.38
2018-07-19T18:37:47.862Z,94447.55
2018-07-19T18:40:18.014Z,94451.69
2018-07-19T18:42:48.129Z,94460.08
2018-07-19T18:45:18.163Z,94459.87
2018-07-19T18:47:47.968Z,94466.91
2018-07-19T18:50:18.291Z,94463.27
2018-07-19T18:52:47.838Z,94462.88
2018-07-19T18:55:17.391Z,94474.34
2018-07-19T18:57:47.318Z,94484.75
2018-07-19T19:00:17.238Z,94479.75
2018-07-19T19:02:47.476Z,94469.53
2018-07-19T19:05:17.240Z,94478.16
2018-07-19T19:07:48.774Z,94480.05
2018-07-19T19:10:18.382Z,94469.73
2018-07-19T19:12:48.544Z,94468.98
2018-07-19T19:15:18.478Z,94467.28
2018-07-19T19:17:48.322Z,94476.38
2018-07-19T19:20:18.427Z,94469.08
2018-07-19T19:22:48.069Z,94461.06
2018-07-19T19:25:18.302Z,94470.78
2018-07-19T19:27:47.890Z,94462.34
2018-07-19T19:30:17.584Z,94480.67
2018-07-19T19:32:47.754Z,94480.50
2018-07-19T19:35:17.706Z,94478.42
2018-07-19T19:37:47.698Z,94472.92
2018-07-19T19:40:18.229Z,94479.11
2018-07-19T19:42:48.390Z,94471.70
2018-07-19T19:45:18.502Z,94467.17
2018-07-19T19:47:48.476Z,94469.81
2018-07-19T19:50:18.818Z,94473.80
2018-07-19T19:52:48.803Z,94474.23
2018-07-19T19:55:19.037Z,94480.14
2018-07-19T19:57:48.977Z,94467.84
2018-07-19T20:00:18.694Z,94464.88
2018-07-19T20:02:48.209Z,94469.05
2018-07-19T20:05:17.918Z,94464.77
2018-07-19T20:07:47.742Z,94467.48
2018-07-19T20:10:17.635Z,94480.16
2018-07-19T20:12:47.449Z,94472.92
2018-07-19T20:15:17.346Z,94481.42
2018-07-19T20:17:47.406Z,94488.90
2018-07-19T20:20:17.728Z,94487.39
2018-07-19T20:22:47.750Z,94486.07
2018-07-19T20:25:17.858Z,94503.84
2018-07-19T20:27:47.646Z,94502.52
2018-07-19T20:30:17.366Z,94495.52
2018-07-19T20:32:47.217Z,94500.70
2018-07-19T20:35:16.810Z,94499.33
2018-07-19T20:37:46.494Z,94502.70
2018-07-19T20:40:16.479Z,94496.14
2018-07-19T20:42:46.161Z,94507.33
2018-07-19T20:45:16.138Z,94508.73
2018-07-19T20:47:46.246Z,94511.47
2018-07-19T20:50:16.271Z,94508.86
2018-07-19T20:52:45.996Z,94512.70
2018-07-19T20:55:15.816Z,94508.75
2018-07-19T20:57:45.810Z,94513.48
2018-07-19T21:00:15.710Z,94516.62
2018-07-19T21:02:45.282Z,94515.92
2018-07-19T21:05:15.948Z,94510.14
2018-07-19T21:07:45.642Z,94511.95
2018-07-19T21:10:15.907Z,94526.23
2018-07-19T21:12:45.614Z,94505.20
2018-07-19T21:15:15.656Z,94503.75
2018-07-19T21:17:45.415Z,94503.97
2018-07-19T21:20:15.390Z,94505.27
2018-07-19T21:22:45.394Z,94501.95
2018-07-19T21:25:15.322Z,94517.95
2018-07-19T21:27:45.879Z,94506.48
2018-07-19T21:30:15.756Z,94510.55
2018-07-19T21:32:46.122Z,94513.55
2018-07-19T21:35:15.821Z,94516.05
2018-07-19T21:37:45.708Z,94511.13
2018-07-19T21:40:15.623Z,94504.73
2018-07-19T21:42:45.536Z,94504.51
2018-07-19T21:45:15.352Z,94501.71
2018-07-19T21:47:45.300Z,94491.64
2018-07-19T21:50:15.079Z,94492.89
2018-07-19T21:52:44.859Z,94489.76
2018-07-19T21:55:14.502Z,94496.55
2018-07-19T21:57:44.748Z,94493.55
2018-07-19T22:00:14.715Z,94485.36
2018-07-19T22:02:45.088Z,94488.26
2018-07-19T22:05:15.056Z,94486.86
2018-07-19T22:07:45.110Z,94470.20
2018-07-19T22:10:14.713Z,94483.75
2018-07-19T22:12:44.499Z,94491.94
2018-07-19T22:15:14.162Z,94488.44
2018-07-19T22:17:43.720Z,94478.14
2018-07-19T22:20:13.557Z,94482.18
2018-07-19T22:22:43.115Z,94482.42
2018-07-19T22:25:12.720Z,94476.60
2018-07-19T22:27:42.671Z,94481.78
2018-07-19T22:30:12.503Z,94474.38
2018-07-19T22:32:42.795Z,94477.76
2018-07-19T22:35:12.670Z,94475.46
2018-07-19T22:37:42.568Z,94473.30
2018-07-19T22:40:12.306Z,94483.31
2018-07-19T22:42:41.913Z,94478.27
2018-07-19T22:45:11.879Z,94482.98
2018-07-19T22:47:41.421Z,94478.80
2018-07-19T22:50:11.438Z,94488.75
2018-07-19T22:52:41.055Z,94497.60
2018-07-19T22:55:10.783Z,94481.48
2018-07-19T22:57:40.736Z,94491.63
2018-07-19T23:00:10.675Z,94491.37
2018-07-19T23:02:40.316Z,94486.55
2018-07-19T23:05:10.037Z,94478.05
2018-07-19T23:07:39.882Z,94476.69
2018-07-19T23:10:09.935Z,94475.16
2018-07-19T23:12:39.610Z,94486.01
2018-07-19T23:15:09.550Z,94484.38
2018-07-19T23:17:39.662Z,94483.41
2018-07-19T23:20:09.538Z,94466.02
2018-07-19T23:22:39.116Z,94478.95
2018-07-19T23:25:09.047Z,94488.16
2018-07-19T23:27:38.703Z,94481.77
2018-07-19T23:30:08.492Z,94485.63
2018-07-19T23:32:38.454Z,94473.42
2018-07-19T23:35:08.267Z,94491.34
2018-07-19T23:37:39.549Z,94478.23
2018-07-19T23:40:16.048Z,94480.13
2018-07-19T23:42:50.261Z,94488.28
2018-07-19T23:45:31.102Z,94487.65
2018-07-19T23:48:01.627Z,94489.39
2018-07-19T23:50:31.536Z,94489.58
2018-07-19T23:53:01.394Z,94490.47
2018-07-19T23:55:30.932Z,94486.55
2018-07-19T23:58:00.528Z,94491.15
